Flight Track Log - Related Links

Times and Time Zones

All times are in EDT time to prevent confusion due to time zone crossing. See the N916CG flight status page for this flight to view local times or setup timezone preferences in your user account.

Time Position Orientation Groundspeed Altitude Reporting Facility
EDT Latitude Longitude Course Direction KTS MPH feet Rate Location/Type
Sat 03:12:32 PM 42.4667 -71.2500 188° South 176 203 1,200  Level KA90
Sat 03:13:50 PM 42.3833 -71.2667 188° South 246 283 2,500 1,730 Climbing KA90
Sat 03:15:15 PM 42.3367 -71.3681 238° Southwest 261 300 5,900 3,205 Climbing Boston Center
Sat 03:16:16 PM 42.3397 -71.4644 272° West 260 299 10,300 3,620 Climbing Boston Center
Sat 03:17:16 PM 42.3428 -71.5631 272° West 263 303 13,200 1,800 Climbing Boston Center
Sat 03:18:16 PM 42.3439 -71.6792 271° West 317 365 13,900 1,240 Climbing Boston Center
Sat 03:19:17 PM 42.3272 -71.8117 260° West 349 402 15,700 1,869 Climbing Boston Center
Sat 03:20:18 PM 42.3033 -71.9428 256° West 346 398 17,700 1,680 Climbing Boston Center
Sat 03:21:22 PM 42.2836 -72.0542 257° West 344 396 19,200 1,694 Climbing Boston Center
Sat 03:22:22 PM 42.2617 -72.1758 256° West 339 390 21,200 1,950 Climbing Boston Center
Sat 03:23:22 PM 42.2392 -72.2967 256° West 338 389 23,100 1,537 Climbing Boston Center
Sat 03:24:23 PM 42.1839 -72.3994 234° Southwest 343 395 24,300 1,756 Climbing Boston Center
Sat 03:25:25 PM 42.1250 -72.4933 230° Southwest 332 382 26,700 1,935 Climbing Boston Center
Sat 03:26:27 PM 42.0703 -72.5864 232° Southwest 320 368 28,300 1,623 Climbing Boston Center
Sat 03:27:27 PM 42.0153 -72.6786 231° Southwest 319 367 30,000 1,388 Climbing Boston Center
Sat 03:28:28 PM 41.9586 -72.7733 231° Southwest 318 366 31,100 1,033 Climbing Boston Center
Sat 03:29:29 PM 41.8997 -72.8733 232° Southwest 334 384 32,100 1,082 Climbing Boston Center
Sat 03:30:30 PM 41.8269 -72.9939 231° Southwest 341 392 33,300 1,082 Climbing Boston Center
Sat 03:31:31 PM 41.7658 -73.0961 231° Southwest 346 398 34,300 992 Climbing Boston Center
Sat 03:32:31 PM 41.7047 -73.1964 231° Southwest 346 398 35,300 942 Climbing Boston Center
Sat 03:33:32 PM 41.6439 -73.2978 231° Southwest 350 403 36,200 934 Climbing Boston Center
Sat 03:34:33 PM 41.5853 -73.3967 232° Southwest 345 397 37,200 878 Climbing Boston Center
Sat 03:35:35 PM 41.5300 -73.4861 230° Southwest 342 394 38,000 390 Climbing Boston Center
Sat 03:36:36 PM 41.4694 -73.5844 231° Southwest 340 391 38,000  Level Boston Center
Sat 03:37:35 PM 41.3936 -73.7083 231° Southwest 356 410 38,000  Level Boston Center
Sat 03:38:35 PM 41.3283 -73.8139 231° Southwest 365 420 38,000  Level Boston Center
Sat 03:39:14 PM 41.2892 -73.8858 234° Southwest 365 420 38,000  Level New York Center
Sat 03:40:14 PM 41.2219 -73.9903 229° Southwest 365 420 38,000  Level New York Center
Sat 03:41:14 PM 41.1608 -74.0892 231° Southwest 375 432 38,000  Level New York Center
Sat 03:42:14 PM 41.0867 -74.2067 230° Southwest 380 437 38,000  Level New York Center
Sat 03:43:14 PM 41.0278 -74.2972 229° Southwest 374 430 38,000  Level New York Center
Sat 03:44:14 PM 40.9619 -74.4036 231° Southwest 374 430 38,000  Level New York Center
Sat 03:45:14 PM 40.8961 -74.5100 231° Southwest 374 430 38,000  Level New York Center
Sat 03:46:14 PM 40.8303 -74.6161 231° Southwest 379 436 38,000  Level New York Center
Sat 03:47:14 PM 40.7536 -74.7322 229° Southwest 379 436 38,000  Level New York Center
Sat 03:48:14 PM 40.6894 -74.8381 231° Southwest 379 436 38,000  Level New York Center
Sat 03:49:14 PM 40.6233 -74.9433 230° Southwest 379 436 38,000  Level New York Center
Sat 03:50:14 PM 40.5572 -75.0431 229° Southwest 379 436 38,000  Level New York Center
Sat 03:51:14 PM 40.4908 -75.1483 230° Southwest 379 436 38,000  Level New York Center
Sat 03:52:14 PM 40.4244 -75.2503 229° Southwest 379 436 38,000  Level New York Center
Sat 03:53:14 PM 40.3600 -75.3550 231° Southwest 379 436 38,000  Level New York Center
Sat 03:54:14 PM 40.2936 -75.4569 230° Southwest 379 436 38,000  Level New York Center
Sat 03:55:14 PM 40.2269 -75.5583 229° Southwest 379 436 38,000  Level New York Center
Sat 03:56:14 PM 40.1722 -75.6686 237° Southwest 374 430 38,000  Level New York Center
Sat 03:57:14 PM 40.1175 -75.7817 238° Southwest 369 425 38,000  Level New York Center
Sat 03:58:14 PM 40.0608 -75.8861 235° Southwest 363 418 38,000  Level New York Center
Sat 04:00:18 PM 39.9500 -76.1031 236° Southwest 361 415 38,000  Level Washington Center
Sat 04:01:18 PM 39.8975 -76.2108 238° Southwest 361 415 38,000  Level Washington Center
Sat 04:02:16 PM 39.8406 -76.3156 235° Southwest 361 415 38,000  Level Washington Center
Sat 04:03:18 PM 39.7858 -76.4258 237° Southwest 361 415 38,000  Level Washington Center
Sat 04:04:18 PM 39.7456 -76.5092 238° Southwest 361 415 38,000  Level Washington Center
Sat 04:05:16 PM 39.6781 -76.6242 233° Southwest 366 421 38,000  Level Washington Center
Sat 04:06:17 PM 39.6250 -76.7311 237° Southwest 366 421 38,000  Level Washington Center
Sat 04:07:16 PM 39.5697 -76.8325 235° Southwest 360 414 38,000  Level Washington Center
Sat 04:08:18 PM 39.5144 -76.9392 236° Southwest 360 414 38,000  Level Washington Center
Sat 04:09:16 PM 39.4528 -77.0403 232° Southwest 360 414 38,000  Level Washington Center
Sat 04:10:18 PM 39.3872 -77.1303 227° Southwest 360 414 38,000  Level Washington Center
Sat 04:11:16 PM 39.3172 -77.2225 226° Southwest 355 409 38,000  Level Washington Center
Sat 04:12:17 PM 39.2492 -77.3175 227° Southwest 361 415 38,000  Level Washington Center
Sat 04:13:17 PM 39.1811 -77.4097 226° Southwest 366 421 38,000  Level Washington Center
Sat 04:14:16 PM 39.1108 -77.5042 226° Southwest 366 421 38,000  Level Washington Center
Sat 04:15:18 PM 39.0342 -77.6064 226° Southwest 366 421 38,000  Level Washington Center
Sat 04:16:16 PM 38.9744 -77.6903 228° Southwest 366 421 38,000  Level Washington Center
Sat 04:17:16 PM 38.8975 -77.7947 227° Southwest 366 421 38,000  Level Washington Center
Sat 04:18:17 PM 38.8247 -77.8939 227° Southwest 371 427 38,000  Level Washington Center
Sat 04:19:17 PM 38.7542 -77.9875 226° Southwest 376 433 38,000  Level Washington Center
Sat 04:20:16 PM 38.6833 -78.0811 226° Southwest 376 433 38,000  Level Washington Center
Sat 04:21:17 PM 38.6125 -78.1769 227° Southwest 371 427 38,000  Level Washington Center
Sat 04:22:17 PM 38.5394 -78.2725 226° Southwest 371 427 38,000  Level Washington Center
Sat 04:23:18 PM 38.4664 -78.3681 226° Southwest 371 427 38,000  Level Washington Center
Sat 04:24:16 PM 38.3953 -78.4633 226° Southwest 371 427 38,000  Level Washington Center
Sat 04:25:17 PM 38.3200 -78.5611 226° Southwest 376 433 38,000  Level Washington Center
Sat 04:26:18 PM 38.2572 -78.6539 229° Southwest 376 433 38,000  Level Washington Center
Sat 04:27:16 PM 38.1817 -78.7511 225° Southwest 383 441 38,000  Level Washington Center
Sat 04:28:18 PM 38.1100 -78.8589 230° Southwest 393 452 38,000  Level Washington Center
Sat 04:29:17 PM 38.0403 -78.9692 231° Southwest 398 458 38,000  Level Washington Center
Sat 04:30:18 PM 37.9617 -79.0869 230° Southwest 408 470 38,000  Level Washington Center
Sat 04:31:16 PM 37.8897 -79.1967 230° Southwest 408 470 38,000  Level Washington Center
Sat 04:32:16 PM 37.8175 -79.3064 230° Southwest 413 475 38,000  Level Washington Center
Sat 04:33:16 PM 37.7519 -79.4028 229° Southwest 413 475 38,000  Level Washington Center
Sat 04:34:17 PM 37.6731 -79.5169 229° Southwest 413 475 38,000  Level Washington Center
Sat 04:35:18 PM 37.6094 -79.6106 229° Southwest 408 470 38,000  Level Washington Center
Sat 04:36:17 PM 37.5303 -79.7294 230° Southwest 408 470 38,000  Level Washington Center
Sat 04:37:16 PM 37.4667 -79.8256 230° Southwest 408 470 38,000  Level Washington Center
Sat 04:38:16 PM 37.3917 -79.9389 230° Southwest 415 478 38,000  Level Washington Center
Sat 04:39:17 PM 37.3211 -80.0422 229° Southwest 415 478 38,000  Level Washington Center
Sat 04:41:04 PM 37.1897 -80.2272 228° Southwest 399 459 38,000  Level Atlanta Center
Sat 04:42:04 PM 37.1119 -80.3431 230° Southwest 399 459 38,000  Level Atlanta Center
Sat 04:43:04 PM 37.0419 -80.4425 229° Southwest 394 453 38,000  Level Atlanta Center
Sat 04:44:04 PM 36.9700 -80.5472 229° Southwest 394 453 38,000  Level Atlanta Center
Sat 04:45:04 PM 36.9019 -80.6461 229° Southwest 394 453 38,000  Level Atlanta Center
Sat 04:46:04 PM 36.8378 -80.7397 229° Southwest 394 453 38,000  Level Atlanta Center
Sat 04:47:04 PM 36.7672 -80.8386 228° Southwest 394 453 38,000  Level Atlanta Center
Sat 04:48:04 PM 36.7011 -80.9369 230° Southwest 389 448 38,000  Level Atlanta Center
Sat 04:49:04 PM 36.6325 -81.0353 229° Southwest 389 448 38,000  Level Atlanta Center
Sat 04:50:04 PM 36.5642 -81.1386 231° Southwest 389 448 38,000  Level Atlanta Center
Sat 04:51:04 PM 36.4933 -81.2367 228° Southwest 389 448 38,000  Level Atlanta Center
Sat 04:52:04 PM 36.4247 -81.3372 230° Southwest 389 448 38,000  Level Atlanta Center
Sat 04:53:04 PM 36.3539 -81.4350 228° Southwest 389 448 38,000  Level Atlanta Center
Sat 04:54:04 PM 36.2831 -81.5378 229° Southwest 389 448 38,000  Level Atlanta Center
Sat 04:55:04 PM 36.2119 -81.6378 229° Southwest 389 448 38,000  Level Atlanta Center
Sat 04:56:04 PM 36.1431 -81.7375 229° Southwest 389 448 38,000  Level Atlanta Center
Sat 04:57:04 PM 36.0697 -81.8372 228° Southwest 394 453 38,000  Level Atlanta Center
Sat 04:58:04 PM 36.0006 -81.9367 229° Southwest 394 453 38,000  Level Atlanta Center
Sat 04:59:04 PM 35.9272 -82.0386 228° Southwest 394 453 38,000 -350 Level Atlanta Center
Sat 05:00:04 PM 35.8517 -82.1403 227° Southwest 399 459 37,300 -1,200 Descending Atlanta Center
Sat 05:01:04 PM 35.7658 -82.2525 227° Southwest 399 459 35,600 -1,150 Descending Atlanta Center
Sat 05:02:04 PM 35.7025 -82.3483 231° Southwest 404 465 35,000 -300 Descending Atlanta Center
Sat 05:03:04 PM 35.6244 -82.4522 227° Southwest 404 465 35,000 -650 Level Atlanta Center
Sat 05:04:04 PM 35.5486 -82.5558 228° Southwest 404 465 33,700 -1,600 Descending Atlanta Center
Sat 05:05:04 PM 35.4686 -82.6617 227° Southwest 393 452 31,800 2,150 Descending Atlanta Center
Sat 05:06:04 PM 35.4028 -82.7572 230° Southwest 405 466 38,000 -1,550 Climbing Atlanta Center
Sat 05:07:04 PM 35.3244 -82.8628 228° Southwest 413 475 28,700 -5,600 Descending Atlanta Center
Sat 05:08:04 PM 35.2400 -82.9708 226° Southwest 413 475 26,800 -1,650 Descending Atlanta Center
Sat 05:09:04 PM 35.1719 -83.0631 228° Southwest 413 475 25,400 -1,500 Descending Atlanta Center
Sat 05:10:04 PM 35.0975 -83.1656 228° Southwest 413 475 23,800 -1,700 Descending Atlanta Center
Sat 05:11:04 PM 35.0211 -83.2628 226° Southwest 407 468 22,000 -1,650 Descending Atlanta Center
Sat 05:12:04 PM 34.9444 -83.3469 222° Southwest 393 452 20,500 -1,500 Descending Atlanta Center
Sat 05:13:04 PM 34.8656 -83.4389 224° Southwest 388 447 19,000 -750 Descending Atlanta Center
Sat 05:14:04 PM 34.7867 -83.5306 224° Southwest 394 453 19,000 -500 Level Atlanta Center
Sat 05:15:04 PM 34.7014 -83.6219 221° Southwest 382 440 18,000 -1,350 Descending Atlanta Center
Sat 05:16:04 PM 34.6328 -83.7031 224° Southwest 357 411 16,300 -1,800 Descending Atlanta Center
Sat 05:17:04 PM 34.5619 -83.7892 225° Southwest 357 411 14,400 -1,900 Descending Atlanta Center
Sat 05:18:04 PM 34.4933 -83.8675 223° Southwest 357 411 12,500 -1,750 Descending Atlanta Center
Sat 05:19:04 PM 34.4328 -83.9381 224° Southwest 319 367 10,900 -1,400 Descending Atlanta Center
Sat 05:20:04 PM 34.3808 -83.9961 223° Southwest 297 342 9,700 -1,250 Descending Atlanta Center
Sat 05:21:04 PM 34.3306 -84.0539 224° Southwest 263 303 8,400 -850 Descending Atlanta Center
Sat 05:22:04 PM 34.2700 -84.1017 213° Southwest 263 303 8,000 -600 Descending Atlanta Center
Sat 05:23:04 PM 34.2033 -84.1367 203° Southwest 263 303 7,200 -1,150 Descending Atlanta Center
Sat 05:24:04 PM 34.1364 -84.1769 206° Southwest 263 303 5,700 -1,603 Descending Atlanta Center
Sat 05:25:15 PM 34.0500 -84.2167 201° Southwest 263 303 3,700 -1,237 Descending Atlanta TRACON
Sat 05:26:15 PM 33.9833 -84.2500 203° Southwest 241 277 3,000 -750 Descending Atlanta TRACON
Sat 05:27:15 PM 33.9333 -84.2667 195° South 187 215 2,200 -800 Descending Atlanta TRACON
Sat 05:28:15 PM 33.9000 -84.2833 203° Southwest 137 158 1,400 -800 Descending Atlanta TRACON
Sat 05:30:00 PM 33.8667 -84.3000 209° Southwest  Level FlightAware Approximate

Login

Don't have an account? Register now (free) for customized features, flight alerts, and more!